sensor_id;sensor_type;location;lat;lon;timestamp;temperature;humidity
14192;DHT22;7177;48.572;7.838;2023-03-01T00:01:08;0.10;99.90
14192;DHT22;7177;48.572;7.838;2023-03-01T00:03:34;0.20;99.90
14192;DHT22;7177;48.572;7.838;2023-03-01T00:06:00;0.10;99.90
14192;DHT22;7177;48.572;7.838;2023-03-01T00:08:26;0.10;99.90
14192;DHT22;7177;48.572;7.838;2023-03-01T00:11:03;0.20;99.90
14192;DHT22;7177;48.572;7.838;2023-03-01T00:13:28;0.10;99.90
14192;DHT22;7177;48.572;7.838;2023-03-01T00:15:54;0.00;99.90
14192;DHT22;7177;48.572;7.838;2023-03-01T00:18:19;0.00;99.90
14192;DHT22;7177;48.572;7.838;2023-03-01T00:20:56;0.10;99.90
14192;DHT22;7177;48.572;7.838;2023-03-01T00:23:22;0.00;99.90
14192;DHT22;7177;48.572;7.838;2023-03-01T00:25:48;0.00;99.90
14192;DHT22;7177;48.572;7.838;2023-03-01T00:28:14;-0.10;99.90
14192;DHT22;7177;48.572;7.838;2023-03-01T00:30:40;-0.10;99.90
14192;DHT22;7177;48.572;7.838;2023-03-01T00:33:05;-0.10;99.90
14192;DHT22;7177;48.572;7.838;2023-03-01T00:35:32;-0.10;99.90
14192;DHT22;7177;48.572;7.838;2023-03-01T00:37:58;0.00;99.90
14192;DHT22;7177;48.572;7.838;2023-03-01T00:40:24;-0.20;99.90
14192;DHT22;7177;48.572;7.838;2023-03-01T00:42:50;-0.20;99.90
14192;DHT22;7177;48.572;7.838;2023-03-01T00:45:16;-0.20;99.90
14192;DHT22;7177;48.572;7.838;2023-03-01T00:47:41;-0.30;99.90
14192;DHT22;7177;48.572;7.838;2023-03-01T00:50:08;-0.30;99.90
14192;DHT22;7177;48.572;7.838;2023-03-01T00:52:33;-0.30;99.90
14192;DHT22;7177;48.572;7.838;2023-03-01T00:54:59;-0.30;99.90
14192;DHT22;7177;48.572;7.838;2023-03-01T00:57:24;-0.40;99.90
14192;DHT22;7177;48.572;7.838;2023-03-01T00:59:50;-0.40;99.90
14192;DHT22;7177;48.572;7.838;2023-03-01T01:02:18;-0.50;99.90
14192;DHT22;7177;48.572;7.838;2023-03-01T01:04:44;-0.50;99.90
14192;DHT22;7177;48.572;7.838;2023-03-01T01:07:09;-0.60;99.90
14192;DHT22;7177;48.572;7.838;2023-03-01T01:09:35;-0.60;99.90
14192;DHT22;7177;48.572;7.838;2023-03-01T01:12:02;-0.60;99.90
14192;DHT22;7177;48.572;7.838;2023-03-01T01:14:28;-0.60;99.90
14192;DHT22;7177;48.572;7.838;2023-03-01T01:16:53;-0.50;99.90
14192;DHT22;7177;48.572;7.838;2023-03-01T01:19:20;-0.50;99.90
14192;DHT22;7177;48.572;7.838;2023-03-01T01:21:46;-0.60;99.90
14192;DHT22;7177;48.572;7.838;2023-03-01T01:24:13;-0.60;99.90
14192;DHT22;7177;48.572;7.838;2023-03-01T01:26:39;-0.60;99.90
14192;DHT22;7177;48.572;7.838;2023-03-01T01:29:05;-0.60;99.90
14192;DHT22;7177;48.572;7.838;2023-03-01T01:31:32;-0.60;99.90
14192;DHT22;7177;48.572;7.838;2023-03-01T01:33:59;-0.60;99.90
14192;DHT22;7177;48.572;7.838;2023-03-01T01:36:24;-0.70;99.90
14192;DHT22;7177;48.572;7.838;2023-03-01T01:38:50;-0.70;99.90
14192;DHT22;7177;48.572;7.838;2023-03-01T01:41:17;-0.80;99.90
14192;DHT22;7177;48.572;7.838;2023-03-01T01:44:33;-0.80;99.90
14192;DHT22;7177;48.572;7.838;2023-03-01T01:46:35;-0.80;99.90
14192;DHT22;7177;48.572;7.838;2023-03-01T01:49:16;-0.80;99.90
14192;DHT22;7177;48.572;7.838;2023-03-01T01:51:44;-0.80;99.90
14192;DHT22;7177;48.572;7.838;2023-03-01T01:54:21;-0.90;99.90
14192;DHT22;7177;48.572;7.838;2023-03-01T01:56:52;-0.90;99.90
14192;DHT22;7177;48.572;7.838;2023-03-01T01:59:20;-1.00;99.90
14192;DHT22;7177;48.572;7.838;2023-03-01T02:01:50;-1.00;99.90
14192;DHT22;7177;48.572;7.838;2023-03-01T02:04:16;-1.10;99.90
14192;DHT22;7177;48.572;7.838;2023-03-01T02:06:49;-1.10;99.90
14192;DHT22;7177;48.572;7.838;2023-03-01T02:09:20;-1.00;99.90
14192;DHT22;7177;48.572;7.838;2023-03-01T02:11:47;-1.00;99.90
14192;DHT22;7177;48.572;7.838;2023-03-01T02:14:14;-1.00;99.90
14192;DHT22;7177;48.572;7.838;2023-03-01T02:16:40;-1.00;99.90
14192;DHT22;7177;48.572;7.838;2023-03-01T02:19:07;-1.10;99.90
14192;DHT22;7177;48.572;7.838;2023-03-01T02:22:03;-1.10;99.90
14192;DHT22;7177;48.572;7.838;2023-03-01T02:24:34;-1.20;99.90
14192;DHT22;7177;48.572;7.838;2023-03-01T02:27:05;-1.20;99.90
14192;DHT22;7177;48.572;7.838;2023-03-01T02:29:30;-1.20;99.90
14192;DHT22;7177;48.572;7.838;2023-03-01T02:31:58;-1.20;99.90
14192;DHT22;7177;48.572;7.838;2023-03-01T02:34:25;-1.20;99.90
14192;DHT22;7177;48.572;7.838;2023-03-01T02:36:56;-1.20;99.90
14192;DHT22;7177;48.572;7.838;2023-03-01T02:39:26;-1.20;99.90
14192;DHT22;7177;48.572;7.838;2023-03-01T02:41:54;-1.20;99.90
14192;DHT22;7177;48.572;7.838;2023-03-01T02:44:21;-1.10;99.90
14192;DHT22;7177;48.572;7.838;2023-03-01T02:46:50;-1.30;99.90
14192;DHT22;7177;48.572;7.838;2023-03-01T02:57:22;-1.50;99.90
14192;DHT22;7177;48.572;7.838;2023-03-01T02:59:49;-1.50;99.90
14192;DHT22;7177;48.572;7.838;2023-03-01T03:02:25;-1.40;99.90
14192;DHT22;7177;48.572;7.838;2023-03-01T03:05:11;-1.30;99.90
14192;DHT22;7177;48.572;7.838;2023-03-01T03:07:39;-1.20;99.90
14192;DHT22;7177;48.572;7.838;2023-03-01T03:10:07;-1.20;99.90
14192;DHT22;7177;48.572;7.838;2023-03-01T03:12:33;-1.20;99.90
14192;DHT22;7177;48.572;7.838;2023-03-01T03:14:59;-1.20;99.90
14192;DHT22;7177;48.572;7.838;2023-03-01T03:17:24;-1.20;99.90
14192;DHT22;7177;48.572;7.838;2023-03-01T03:19:50;-1.20;99.90
14192;DHT22;7177;48.572;7.838;2023-03-01T03:22:15;-1.30;99.90
14192;DHT22;7177;48.572;7.838;2023-03-01T03:24:41;-1.30;99.90
14192;DHT22;7177;48.572;7.838;2023-03-01T03:27:07;-1.30;99.90
14192;DHT22;7177;48.572;7.838;2023-03-01T03:29:33;-1.30;99.90
14192;DHT22;7177;48.572;7.838;2023-03-01T03:31:59;-1.40;99.90
14192;DHT22;7177;48.572;7.838;2023-03-01T03:34:24;-1.50;99.90
14192;DHT22;7177;48.572;7.838;2023-03-01T03:36:54;-1.50;99.90
14192;DHT22;7177;48.572;7.838;2023-03-01T03:39:25;-1.50;99.90
14192;DHT22;7177;48.572;7.838;2023-03-01T03:41:52;-1.50;99.90
14192;DHT22;7177;48.572;7.838;2023-03-01T03:44:19;-1.50;99.90
14192;DHT22;7177;48.572;7.838;2023-03-01T03:46:44;-1.50;99.90
14192;DHT22;7177;48.572;7.838;2023-03-01T03:49:10;-1.40;99.90
14192;DHT22;7177;48.572;7.838;2023-03-01T03:51:35;-1.30;99.90
14192;DHT22;7177;48.572;7.838;2023-03-01T03:54:01;-1.40;99.90
14192;DHT22;7177;48.572;7.838;2023-03-01T03:56:26;-1.40;99.90
14192;DHT22;7177;48.572;7.838;2023-03-01T03:58:52;-1.50;99.90
14192;DHT22;7177;48.572;7.838;2023-03-01T04:01:18;-1.40;99.90
14192;DHT22;7177;48.572;7.838;2023-03-01T04:03:43;-1.50;99.90
14192;DHT22;7177;48.572;7.838;2023-03-01T04:06:13;-1.50;99.90
14192;DHT22;7177;48.572;7.838;2023-03-01T04:08:39;-1.50;99.90
14192;DHT22;7177;48.572;7.838;2023-03-01T04:11:06;-1.50;99.90
14192;DHT22;7177;48.572;7.838;2023-03-01T04:13:51;-1.40;99.90
14192;DHT22;7177;48.572;7.838;2023-03-01T04:16:17;-1.50;99.90
14192;DHT22;7177;48.572;7.838;2023-03-01T04:18:43;-1.50;99.90
14192;DHT22;7177;48.572;7.838;2023-03-01T04:21:09;-1.50;99.90
14192;DHT22;7177;48.572;7.838;2023-03-01T04:23:35;-1.50;99.90
14192;DHT22;7177;48.572;7.838;2023-03-01T04:26:01;-1.50;99.90
14192;DHT22;7177;48.572;7.838;2023-03-01T04:28:30;-1.40;99.90
14192;DHT22;7177;48.572;7.838;2023-03-01T04:30:57;-1.50;99.90
14192;DHT22;7177;48.572;7.838;2023-03-01T04:33:24;-1.40;99.90
14192;DHT22;7177;48.572;7.838;2023-03-01T04:35:50;-1.50;99.90
14192;DHT22;7177;48.572;7.838;2023-03-01T04:38:19;-1.50;99.90
14192;DHT22;7177;48.572;7.838;2023-03-01T04:40:46;-1.50;99.90
14192;DHT22;7177;48.572;7.838;2023-03-01T04:43:12;-1.60;99.90
14192;DHT22;7177;48.572;7.838;2023-03-01T04:45:40;-1.60;99.90
14192;DHT22;7177;48.572;7.838;2023-03-01T04:48:05;-1.60;99.90
14192;DHT22;7177;48.572;7.838;2023-03-01T04:50:31;-1.70;99.90
14192;DHT22;7177;48.572;7.838;2023-03-01T04:52:57;-1.80;99.90
14192;DHT22;7177;48.572;7.838;2023-03-01T04:55:27;-1.80;99.90
14192;DHT22;7177;48.572;7.838;2023-03-01T04:57:53;-1.90;99.90
14192;DHT22;7177;48.572;7.838;2023-03-01T05:00:20;-1.90;99.90
14192;DHT22;7177;48.572;7.838;2023-03-01T05:05:26;-2.00;99.90
14192;DHT22;7177;48.572;7.838;2023-03-01T05:07:53;-2.00;99.90
14192;DHT22;7177;48.572;7.838;2023-03-01T05:10:19;-1.90;99.90
14192;DHT22;7177;48.572;7.838;2023-03-01T05:12:44;-1.90;99.90
14192;DHT22;7177;48.572;7.838;2023-03-01T05:15:10;-1.80;99.90
14192;DHT22;7177;48.572;7.838;2023-03-01T05:17:36;-1.30;99.90
14192;DHT22;7177;48.572;7.838;2023-03-01T05:20:01;-0.70;99.90
14192;DHT22;7177;48.572;7.838;2023-03-01T05:22:31;-0.30;99.90
14192;DHT22;7177;48.572;7.838;2023-03-01T05:24:56;0.10;99.90
14192;DHT22;7177;48.572;7.838;2023-03-01T05:27:22;0.20;99.90
14192;DHT22;7177;48.572;7.838;2023-03-01T05:29:47;0.00;99.90
14192;DHT22;7177;48.572;7.838;2023-03-01T05:32:13;-0.40;99.90
14192;DHT22;7177;48.572;7.838;2023-03-01T05:34:41;-0.70;99.90
14192;DHT22;7177;48.572;7.838;2023-03-01T05:37:07;-1.10;99.90
14192;DHT22;7177;48.572;7.838;2023-03-01T05:39:33;-1.20;99.90
14192;DHT22;7177;48.572;7.838;2023-03-01T05:42:00;-1.50;99.90
14192;DHT22;7177;48.572;7.838;2023-03-01T05:44:27;-1.60;99.90
14192;DHT22;7177;48.572;7.838;2023-03-01T05:46:53;-1.60;99.90
14192;DHT22;7177;48.572;7.838;2023-03-01T05:49:19;-1.70;99.90
14192;DHT22;7177;48.572;7.838;2023-03-01T05:51:50;-1.70;99.90
14192;DHT22;7177;48.572;7.838;2023-03-01T05:54:16;-1.90;99.90
14192;DHT22;7177;48.572;7.838;2023-03-01T05:56:42;-2.00;99.90
14192;DHT22;7177;48.572;7.838;2023-03-01T05:59:08;-2.00;99.90
14192;DHT22;7177;48.572;7.838;2023-03-01T06:01:34;-2.00;99.90
14192;DHT22;7177;48.572;7.838;2023-03-01T06:04:00;-2.00;99.90
14192;DHT22;7177;48.572;7.838;2023-03-01T06:06:26;-2.00;99.90
14192;DHT22;7177;48.572;7.838;2023-03-01T06:08:53;-2.10;99.90
14192;DHT22;7177;48.572;7.838;2023-03-01T06:11:19;-2.20;99.90
14192;DHT22;7177;48.572;7.838;2023-03-01T06:13:45;-1.30;99.90
14192;DHT22;7177;48.572;7.838;2023-03-01T06:16:12;-1.30;99.90
14192;DHT22;7177;48.572;7.838;2023-03-01T06:18:38;-1.30;99.90
14192;DHT22;7177;48.572;7.838;2023-03-01T06:21:04;-1.30;99.90
14192;DHT22;7177;48.572;7.838;2023-03-01T06:23:30;-1.50;99.90
14192;DHT22;7177;48.572;7.838;2023-03-01T06:25:55;-1.50;99.90
14192;DHT22;7177;48.572;7.838;2023-03-01T06:28:21;-1.60;99.90
14192;DHT22;7177;48.572;7.838;2023-03-01T06:30:48;-1.70;99.90
14192;DHT22;7177;48.572;7.838;2023-03-01T06:33:14;-1.70;99.90
14192;DHT22;7177;48.572;7.838;2023-03-01T06:35:40;-1.80;99.90
14192;DHT22;7177;48.572;7.838;2023-03-01T06:38:05;-1.80;99.90
14192;DHT22;7177;48.572;7.838;2023-03-01T06:40:31;-1.90;99.90
14192;DHT22;7177;48.572;7.838;2023-03-01T06:42:57;-1.80;99.90
14192;DHT22;7177;48.572;7.838;2023-03-01T06:45:23;-1.80;99.90
14192;DHT22;7177;48.572;7.838;2023-03-01T06:47:49;-1.90;99.90
14192;DHT22;7177;48.572;7.838;2023-03-01T06:50:15;-1.80;99.90
14192;DHT22;7177;48.572;7.838;2023-03-01T06:52:41;-1.50;99.90
14192;DHT22;7177;48.572;7.838;2023-03-01T06:55:09;-1.30;99.90
14192;DHT22;7177;48.572;7.838;2023-03-01T06:57:34;-1.20;99.90
14192;DHT22;7177;48.572;7.838;2023-03-01T07:00:00;-1.00;99.90
14192;DHT22;7177;48.572;7.838;2023-03-01T07:02:25;-0.80;99.90
14192;DHT22;7177;48.572;7.838;2023-03-01T07:04:52;-0.80;99.90
14192;DHT22;7177;48.572;7.838;2023-03-01T07:07:18;-0.70;99.90
14192;DHT22;7177;48.572;7.838;2023-03-01T07:09:44;-0.40;99.90
14192;DHT22;7177;48.572;7.838;2023-03-01T07:12:10;-0.20;99.90
14192;DHT22;7177;48.572;7.838;2023-03-01T07:14:35;0.00;99.90
14192;DHT22;7177;48.572;7.838;2023-03-01T07:17:01;0.20;99.90
14192;DHT22;7177;48.572;7.838;2023-03-01T07:19:27;0.50;99.90
14192;DHT22;7177;48.572;7.838;2023-03-01T07:21:53;0.70;99.90
14192;DHT22;7177;48.572;7.838;2023-03-01T07:24:19;0.70;99.90
14192;DHT22;7177;48.572;7.838;2023-03-01T07:26:48;0.90;99.90
14192;DHT22;7177;48.572;7.838;2023-03-01T07:29:14;1.20;99.90
14192;DHT22;7177;48.572;7.838;2023-03-01T07:31:40;1.60;99.90
14192;DHT22;7177;48.572;7.838;2023-03-01T07:34:05;1.90;99.90
14192;DHT22;7177;48.572;7.838;2023-03-01T07:36:30;2.10;99.90
14192;DHT22;7177;48.572;7.838;2023-03-01T07:38:56;2.10;99.90
14192;DHT22;7177;48.572;7.838;2023-03-01T07:41:23;2.30;99.90
14192;DHT22;7177;48.572;7.838;2023-03-01T07:43:49;2.50;99.90
14192;DHT22;7177;48.572;7.838;2023-03-01T07:46:15;2.50;99.90
14192;DHT22;7177;48.572;7.838;2023-03-01T07:48:40;2.50;99.90
14192;DHT22;7177;48.572;7.838;2023-03-01T07:51:07;2.60;99.90
14192;DHT22;7177;48.572;7.838;2023-03-01T07:53:33;2.50;99.90
14192;DHT22;7177;48.572;7.838;2023-03-01T07:56:10;2.90;99.90
14192;DHT22;7177;48.572;7.838;2023-03-01T07:58:41;3.30;99.90
14192;DHT22;7177;48.572;7.838;2023-03-01T08:01:10;3.80;99.90
14192;DHT22;7177;48.572;7.838;2023-03-01T08:03:36;4.10;99.90
14192;DHT22;7177;48.572;7.838;2023-03-01T08:06:04;4.20;99.90
14192;DHT22;7177;48.572;7.838;2023-03-01T08:08:30;4.40;99.90
14192;DHT22;7177;48.572;7.838;2023-03-01T08:11:00;4.50;99.90
14192;DHT22;7177;48.572;7.838;2023-03-01T08:13:26;4.50;99.90
14192;DHT22;7177;48.572;7.838;2023-03-01T08:15:52;4.60;99.90
14192;DHT22;7177;48.572;7.838;2023-03-01T08:18:19;4.60;99.90
14192;DHT22;7177;48.572;7.838;2023-03-01T08:20:45;4.70;99.90
14192;DHT22;7177;48.572;7.838;2023-03-01T08:23:10;4.60;99.90
14192;DHT22;7177;48.572;7.838;2023-03-01T08:25:36;4.40;99.90
14192;DHT22;7177;48.572;7.838;2023-03-01T08:28:02;4.10;99.90
14192;DHT22;7177;48.572;7.838;2023-03-01T08:30:27;4.10;99.90
14192;DHT22;7177;48.572;7.838;2023-03-01T08:32:53;4.30;99.90
14192;DHT22;7177;48.572;7.838;2023-03-01T08:35:19;4.40;99.90
14192;DHT22;7177;48.572;7.838;2023-03-01T08:37:45;4.20;99.90
14192;DHT22;7177;48.572;7.838;2023-03-01T08:40:11;4.20;99.90
14192;DHT22;7177;48.572;7.838;2023-03-01T08:42:42;4.40;99.90
14192;DHT22;7177;48.572;7.838;2023-03-01T08:45:11;4.40;99.90
14192;DHT22;7177;48.572;7.838;2023-03-01T08:47:37;4.60;99.90
14192;DHT22;7177;48.572;7.838;2023-03-01T08:50:03;4.60;99.90
14192;DHT22;7177;48.572;7.838;2023-03-01T08:52:29;4.80;99.90
14192;DHT22;7177;48.572;7.838;2023-03-01T08:54:55;4.80;99.90
14192;DHT22;7177;48.572;7.838;2023-03-01T08:57:22;5.20;99.90
14192;DHT22;7177;48.572;7.838;2023-03-01T08:59:47;5.20;99.90
14192;DHT22;7177;48.572;7.838;2023-03-01T09:02:15;5.40;99.90
14192;DHT22;7177;48.572;7.838;2023-03-01T09:04:41;5.30;99.90
14192;DHT22;7177;48.572;7.838;2023-03-01T09:07:07;5.50;99.90
14192;DHT22;7177;48.572;7.838;2023-03-01T09:09:33;5.90;99.90
14192;DHT22;7177;48.572;7.838;2023-03-01T09:11:59;6.00;99.90
14192;DHT22;7177;48.572;7.838;2023-03-01T09:14:24;6.30;99.90
14192;DHT22;7177;48.572;7.838;2023-03-01T09:16:50;6.60;99.90
14192;DHT22;7177;48.572;7.838;2023-03-01T09:19:16;6.70;99.90
14192;DHT22;7177;48.572;7.838;2023-03-01T09:21:42;6.90;99.90
14192;DHT22;7177;48.572;7.838;2023-03-01T09:24:19;7.00;99.90
14192;DHT22;7177;48.572;7.838;2023-03-01T09:26:45;6.70;99.90
14192;DHT22;7177;48.572;7.838;2023-03-01T09:29:11;6.50;99.90
14192;DHT22;7177;48.572;7.838;2023-03-01T09:31:37;6.60;99.90
14192;DHT22;7177;48.572;7.838;2023-03-01T09:34:03;6.80;99.90
14192;DHT22;7177;48.572;7.838;2023-03-01T09:36:28;7.10;99.90
14192;DHT22;7177;48.572;7.838;2023-03-01T09:38:54;7.40;99.90
14192;DHT22;7177;48.572;7.838;2023-03-01T09:41:49;7.90;99.90
14192;DHT22;7177;48.572;7.838;2023-03-01T09:44:31;8.30;99.90
14192;DHT22;7177;48.572;7.838;2023-03-01T09:46:58;8.10;99.90
14192;DHT22;7177;48.572;7.838;2023-03-01T09:49:30;7.80;99.90
14192;DHT22;7177;48.572;7.838;2023-03-01T09:52:13;8.10;99.90
14192;DHT22;7177;48.572;7.838;2023-03-01T09:54:45;8.60;99.90
14192;DHT22;7177;48.572;7.838;2023-03-01T09:57:26;8.90;99.90
14192;DHT22;7177;48.572;7.838;2023-03-01T10:00:03;9.10;99.90
14192;DHT22;7177;48.572;7.838;2023-03-01T10:02:52;9.30;99.90
14192;DHT22;7177;48.572;7.838;2023-03-01T10:10:49;10.10;97.90
14192;DHT22;7177;48.572;7.838;2023-03-01T10:13:47;9.90;97.70
14192;DHT22;7177;48.572;7.838;2023-03-01T10:16:40;9.80;98.30
14192;DHT22;7177;48.572;7.838;2023-03-01T10:19:30;9.30;98.80
14192;DHT22;7177;48.572;7.838;2023-03-01T10:22:01;9.10;98.80
14192;DHT22;7177;48.572;7.838;2023-03-01T10:24:32;9.20;98.80
14192;DHT22;7177;48.572;7.838;2023-03-01T10:27:05;9.30;99.40
14192;DHT22;7177;48.572;7.838;2023-03-01T10:29:47;9.40;98.20
14192;DHT22;7177;48.572;7.838;2023-03-01T10:32:14;9.60;98.70
14192;DHT22;7177;48.572;7.838;2023-03-01T10:34:40;9.80;97.70
14192;DHT22;7177;48.572;7.838;2023-03-01T10:37:14;9.70;97.10
14192;DHT22;7177;48.572;7.838;2023-03-01T10:40:06;9.40;97.30
14192;DHT22;7177;48.572;7.838;2023-03-01T10:42:39;9.10;98.20
14192;DHT22;7177;48.572;7.838;2023-03-01T10:45:31;9.10;98.60
14192;DHT22;7177;48.572;7.838;2023-03-01T10:48:13;9.20;99.10
14192;DHT22;7177;48.572;7.838;2023-03-01T10:50:47;9.40;98.10
14192;DHT22;7177;48.572;7.838;2023-03-01T10:53:43;9.40;97.90
14192;DHT22;7177;48.572;7.838;2023-03-01T10:56:14;9.60;97.80
14192;DHT22;7177;48.572;7.838;2023-03-01T11:01:30;10.60;96.00
14192;DHT22;7177;48.572;7.838;2023-03-01T11:06:33;10.90;94.70
14192;DHT22;7177;48.572;7.838;2023-03-01T11:09:14;11.10;94.40
14192;DHT22;7177;48.572;7.838;2023-03-01T11:11:40;11.30;93.70
14192;DHT22;7177;48.572;7.838;2023-03-01T11:14:21;11.70;93.30
14192;DHT22;7177;48.572;7.838;2023-03-01T11:16:49;11.70;92.10
14192;DHT22;7177;48.572;7.838;2023-03-01T11:19:22;11.20;91.90
14192;DHT22;7177;48.572;7.838;2023-03-01T11:22:07;11.10;91.90
14192;DHT22;7177;48.572;7.838;2023-03-01T11:24:42;11.20;91.40
14192;DHT22;7177;48.572;7.838;2023-03-01T11:29:44;11.10;91.70
14192;DHT22;7177;48.572;7.838;2023-03-01T11:32:13;11.00;93.20
14192;DHT22;7177;48.572;7.838;2023-03-01T11:34:45;10.80;92.60
14192;DHT22;7177;48.572;7.838;2023-03-01T11:40:02;10.90;93.20
14192;DHT22;7177;48.572;7.838;2023-03-01T11:43:32;11.00;93.30
14192;DHT22;7177;48.572;7.838;2023-03-01T11:46:06;11.20;91.50
14192;DHT22;7177;48.572;7.838;2023-03-01T11:48:48;11.00;92.20
14192;DHT22;7177;48.572;7.838;2023-03-01T11:56:52;11.20;91.40
14192;DHT22;7177;48.572;7.838;2023-03-01T12:01:58;11.20;91.20
14192;DHT22;7177;48.572;7.838;2023-03-01T12:04:36;11.30;91.10
14192;DHT22;7177;48.572;7.838;2023-03-01T12:07:36;11.30;90.30
14192;DHT22;7177;48.572;7.838;2023-03-01T12:10:26;11.10;91.10
14192;DHT22;7177;48.572;7.838;2023-03-01T12:13:17;11.10;91.50
14192;DHT22;7177;48.572;7.838;2023-03-01T12:16:07;11.40;90.90
14192;DHT22;7177;48.572;7.838;2023-03-01T12:18:52;11.50;90.80
14192;DHT22;7177;48.572;7.838;2023-03-01T12:21:47;11.70;90.90
14192;DHT22;7177;48.572;7.838;2023-03-01T12:30:26;11.50;90.00
14192;DHT22;7177;48.572;7.838;2023-03-01T12:35:42;11.80;90.70
14192;DHT22;7177;48.572;7.838;2023-03-01T12:38:37;11.60;89.90
14192;DHT22;7177;48.572;7.838;2023-03-01T12:49:34;11.30;90.60
14192;DHT22;7177;48.572;7.838;2023-03-01T12:54:49;11.60;89.40
14192;DHT22;7177;48.572;7.838;2023-03-01T12:57:24;11.70;89.20
14192;DHT22;7177;48.572;7.838;2023-03-01T13:08:54;11.60;88.20
14192;DHT22;7177;48.572;7.838;2023-03-01T13:11:18;11.20;89.80
14192;DHT22;7177;48.572;7.838;2023-03-01T13:13:44;11.40;89.40
14192;DHT22;7177;48.572;7.838;2023-03-01T13:19:15;11.80;87.30
14192;DHT22;7177;48.572;7.838;2023-03-01T13:21:41;12.00;88.00
14192;DHT22;7177;48.572;7.838;2023-03-01T13:27:22;12.40;92.90
14192;DHT22;7177;48.572;7.838;2023-03-01T13:32:23;12.90;84.00
14192;DHT22;7177;48.572;7.838;2023-03-01T13:34:51;12.50;85.20
14192;DHT22;7177;48.572;7.838;2023-03-01T13:37:29;12.40;84.90
14192;DHT22;7177;48.572;7.838;2023-03-01T13:39:57;12.30;86.70
14192;DHT22;7177;48.572;7.838;2023-03-01T13:45:00;12.10;85.90
14192;DHT22;7177;48.572;7.838;2023-03-01T13:47:26;12.10;86.30
14192;DHT22;7177;48.572;7.838;2023-03-01T13:49:56;11.60;86.30
14192;DHT22;7177;48.572;7.838;2023-03-01T13:52:43;11.30;87.10
14192;DHT22;7177;48.572;7.838;2023-03-01T13:55:23;11.50;89.80
14192;DHT22;7177;48.572;7.838;2023-03-01T13:57:53;11.40;88.30
14192;DHT22;7177;48.572;7.838;2023-03-01T14:00:37;11.40;89.70
14192;DHT22;7177;48.572;7.838;2023-03-01T14:03:12;11.50;88.30
14192;DHT22;7177;48.572;7.838;2023-03-01T14:05:39;11.60;86.60
14192;DHT22;7177;48.572;7.838;2023-03-01T14:08:19;11.50;86.90
14192;DHT22;7177;48.572;7.838;2023-03-01T14:10:53;11.70;88.10
14192;DHT22;7177;48.572;7.838;2023-03-01T14:13:35;11.40;87.70
14192;DHT22;7177;48.572;7.838;2023-03-01T14:18:43;11.40;87.80
14192;DHT22;7177;48.572;7.838;2023-03-01T14:21:14;11.40;87.00
14192;DHT22;7177;48.572;7.838;2023-03-01T14:23:41;11.40;87.90
14192;DHT22;7177;48.572;7.838;2023-03-01T14:26:08;11.50;89.00
14192;DHT22;7177;48.572;7.838;2023-03-01T14:28:36;11.30;88.90
14192;DHT22;7177;48.572;7.838;2023-03-01T14:31:29;11.50;89.00
14192;DHT22;7177;48.572;7.838;2023-03-01T14:33:57;11.90;86.30
14192;DHT22;7177;48.572;7.838;2023-03-01T14:36:27;12.00;85.20
14192;DHT22;7177;48.572;7.838;2023-03-01T14:38:53;11.80;86.30
14192;DHT22;7177;48.572;7.838;2023-03-01T14:41:22;11.70;85.80
14192;DHT22;7177;48.572;7.838;2023-03-01T14:48:44;11.60;87.20
14192;DHT22;7177;48.572;7.838;2023-03-01T14:51:11;11.40;86.00
14192;DHT22;7177;48.572;7.838;2023-03-01T14:53:37;11.10;86.30
14192;DHT22;7177;48.572;7.838;2023-03-01T14:56:03;11.10;88.10
14192;DHT22;7177;48.572;7.838;2023-03-01T14:58:28;11.20;88.80
14192;DHT22;7177;48.572;7.838;2023-03-01T15:01:02;11.50;87.70
14192;DHT22;7177;48.572;7.838;2023-03-01T15:03:41;11.50;87.60
14192;DHT22;7177;48.572;7.838;2023-03-01T15:06:09;11.60;88.80
14192;DHT22;7177;48.572;7.838;2023-03-01T15:08:41;11.30;86.90
14192;DHT22;7177;48.572;7.838;2023-03-01T15:13:39;11.00;88.80
14192;DHT22;7177;48.572;7.838;2023-03-01T15:16:12;11.00;89.10
14192;DHT22;7177;48.572;7.838;2023-03-01T15:18:47;10.70;89.30
14192;DHT22;7177;48.572;7.838;2023-03-01T15:21:17;10.40;90.10
14192;DHT22;7177;48.572;7.838;2023-03-01T15:23:54;10.30;90.50
14192;DHT22;7177;48.572;7.838;2023-03-01T15:26:37;10.20;90.80
14192;DHT22;7177;48.572;7.838;2023-03-01T15:29:04;10.10;91.20
14192;DHT22;7177;48.572;7.838;2023-03-01T15:31:42;9.80;91.30
14192;DHT22;7177;48.572;7.838;2023-03-01T15:36:43;9.50;92.50
14192;DHT22;7177;48.572;7.838;2023-03-01T15:42:08;9.60;92.40
14192;DHT22;7177;48.572;7.838;2023-03-01T15:44:37;9.40;92.60
14192;DHT22;7177;48.572;7.838;2023-03-01T15:47:22;9.30;93.20
14192;DHT22;7177;48.572;7.838;2023-03-01T15:49:48;9.20;93.90
14192;DHT22;7177;48.572;7.838;2023-03-01T15:54:55;9.10;93.90
14192;DHT22;7177;48.572;7.838;2023-03-01T15:57:21;9.00;94.30
14192;DHT22;7177;48.572;7.838;2023-03-01T15:59:46;8.90;94.70
14192;DHT22;7177;48.572;7.838;2023-03-01T16:02:12;8.70;94.60
14192;DHT22;7177;48.572;7.838;2023-03-01T16:04:38;8.40;95.50
14192;DHT22;7177;48.572;7.838;2023-03-01T16:07:04;8.40;96.00
14192;DHT22;7177;48.572;7.838;2023-03-01T16:09:30;8.20;95.80
14192;DHT22;7177;48.572;7.838;2023-03-01T16:11:56;8.10;96.10
14192;DHT22;7177;48.572;7.838;2023-03-01T16:14:21;8.10;96.70
14192;DHT22;7177;48.572;7.838;2023-03-01T16:16:47;8.00;96.80
14192;DHT22;7177;48.572;7.838;2023-03-01T16:19:13;7.90;97.60
14192;DHT22;7177;48.572;7.838;2023-03-01T16:21:40;7.80;97.80
14192;DHT22;7177;48.572;7.838;2023-03-01T16:24:07;7.70;98.30
14192;DHT22;7177;48.572;7.838;2023-03-01T16:26:33;7.70;98.40
14192;DHT22;7177;48.572;7.838;2023-03-01T16:28:59;7.60;98.60
14192;DHT22;7177;48.572;7.838;2023-03-01T16:31:24;7.60;98.80
14192;DHT22;7177;48.572;7.838;2023-03-01T16:33:57;7.40;98.90
14192;DHT22;7177;48.572;7.838;2023-03-01T16:36:24;7.40;99.80
14192;DHT22;7177;48.572;7.838;2023-03-01T16:38:51;7.30;99.80
14192;DHT22;7177;48.572;7.838;2023-03-01T16:41:18;7.30;99.90
14192;DHT22;7177;48.572;7.838;2023-03-01T16:43:44;7.20;99.90
14192;DHT22;7177;48.572;7.838;2023-03-01T16:46:13;7.20;99.90
14192;DHT22;7177;48.572;7.838;2023-03-01T16:48:39;7.00;99.90
14192;DHT22;7177;48.572;7.838;2023-03-01T16:51:05;7.10;99.90
14192;DHT22;7177;48.572;7.838;2023-03-01T16:53:32;7.00;99.90
14192;DHT22;7177;48.572;7.838;2023-03-01T16:55:59;7.00;99.90
14192;DHT22;7177;48.572;7.838;2023-03-01T16:58:25;7.00;99.90
14192;DHT22;7177;48.572;7.838;2023-03-01T17:00:52;6.90;99.90
14192;DHT22;7177;48.572;7.838;2023-03-01T17:03:20;6.80;99.90
14192;DHT22;7177;48.572;7.838;2023-03-01T17:05:45;6.80;99.90
14192;DHT22;7177;48.572;7.838;2023-03-01T17:08:11;6.70;99.90
14192;DHT22;7177;48.572;7.838;2023-03-01T17:10:36;6.70;99.90
14192;DHT22;7177;48.572;7.838;2023-03-01T17:13:02;6.70;99.90
14192;DHT22;7177;48.572;7.838;2023-03-01T17:15:27;6.60;99.90
14192;DHT22;7177;48.572;7.838;2023-03-01T17:17:53;6.60;99.90
14192;DHT22;7177;48.572;7.838;2023-03-01T17:20:18;6.50;99.90
14192;DHT22;7177;48.572;7.838;2023-03-01T17:22:44;6.50;99.90
14192;DHT22;7177;48.572;7.838;2023-03-01T17:25:10;6.40;99.90
14192;DHT22;7177;48.572;7.838;2023-03-01T17:27:38;6.40;99.90
14192;DHT22;7177;48.572;7.838;2023-03-01T17:30:05;6.40;99.90
14192;DHT22;7177;48.572;7.838;2023-03-01T17:32:31;6.30;99.90
14192;DHT22;7177;48.572;7.838;2023-03-01T17:34:56;6.30;99.90
14192;DHT22;7177;48.572;7.838;2023-03-01T17:37:22;6.30;99.90
14192;DHT22;7177;48.572;7.838;2023-03-01T17:39:47;6.30;99.90